createdAt,value
2019-01-20T00:00:02.868Z,150.07
2019-01-20T00:02:33.951Z,167.70
2019-01-20T00:05:06.616Z,161.57
2019-01-20T00:07:37.664Z,164.37
2019-01-20T00:10:09.733Z,144.23
2019-01-20T00:12:40.788Z,151.73
2019-01-20T00:15:11.972Z,171.37
2019-01-20T00:17:43.099Z,162.20
2019-01-20T00:20:14.583Z,156.10
2019-01-20T00:22:45.976Z,168.90
2019-01-20T00:25:17.703Z,153.47
2019-01-20T00:27:48.845Z,149.80
2019-01-20T00:30:22.662Z,159.77
2019-01-20T00:32:55.683Z,169.00
2019-01-20T00:35:28.824Z,165.57
2019-01-20T00:37:59.918Z,170.33
2019-01-20T00:40:32.442Z,182.07
2019-01-20T00:43:03.659Z,179.40
2019-01-20T00:45:35.127Z,162.77
2019-01-20T00:48:05.870Z,164.07
2019-01-20T00:50:37.428Z,164.57
2019-01-20T00:53:09.091Z,163.07
2019-01-20T00:55:40.206Z,163.50
2019-01-20T00:58:12.048Z,151.63
2019-01-20T01:00:43.239Z,170.87
2019-01-20T01:03:15.024Z,207.33
2019-01-20T01:05:46.247Z,189.40
2019-01-20T01:08:18.476Z,176.47
2019-01-20T01:10:50.061Z,189.83
2019-01-20T01:13:21.288Z,196.40
2019-01-20T01:15:52.322Z,193.20
2019-01-20T01:18:23.809Z,170.40
2019-01-20T01:20:55.193Z,198.37
2019-01-20T01:29:51.016Z,237.40
2019-01-20T01:32:22.148Z,211.57
2019-01-20T01:34:53.752Z,223.67
2019-01-20T01:37:25.130Z,230.47
2019-01-20T01:39:56.070Z,227.10
2019-01-20T01:42:27.840Z,228.90
2019-01-20T01:44:59.307Z,237.10
2019-01-20T01:47:30.323Z,230.27
2019-01-20T01:50:01.693Z,230.47
2019-01-20T01:52:33.142Z,179.97
2019-01-20T01:55:04.248Z,196.13
2019-01-20T01:57:35.838Z,197.97
2019-01-20T02:00:11.660Z,216.37
2019-01-20T02:02:42.349Z,186.47
2019-01-20T02:05:13.042Z,196.47
2019-01-20T02:07:44.045Z,191.43
2019-01-20T02:10:21.289Z,222.63
2019-01-20T02:12:53.573Z,212.77
2019-01-20T02:15:24.850Z,223.33
2019-01-20T02:17:56.155Z,230.67
2019-01-20T02:20:27.210Z,217.10
2019-01-20T02:22:58.225Z,231.68
2019-01-20T02:25:29.703Z,227.40
2019-01-20T02:28:01.071Z,221.97
2019-01-20T02:30:33.094Z,216.82
2019-01-20T02:33:04.065Z,235.50
2019-01-20T02:35:35.462Z,189.50
2019-01-20T02:38:06.203Z,188.67
2019-01-20T02:40:37.625Z,188.63
2019-01-20T02:43:08.262Z,206.90
2019-01-20T02:45:39.283Z,199.30
2019-01-20T02:48:10.346Z,174.70
2019-01-20T02:50:41.415Z,185.63
2019-01-20T02:53:12.786Z,187.30
2019-01-20T02:55:44.133Z,171.00
2019-01-20T02:58:15.574Z,177.37
2019-01-20T03:00:50.077Z,175.03
2019-01-20T03:03:21.044Z,172.43
2019-01-20T03:05:52.097Z,165.95
2019-01-20T03:08:23.200Z,152.20
2019-01-20T03:10:54.226Z,152.10
2019-01-20T03:13:25.431Z,178.80
2019-01-20T03:15:56.475Z,176.37
2019-01-20T03:18:27.145Z,191.50
2019-01-20T03:20:57.943Z,185.70
2019-01-20T03:23:28.709Z,178.57
2019-01-20T03:29:24.967Z,162.13
2019-01-20T03:31:56.420Z,167.97
2019-01-20T03:34:27.716Z,166.20
2019-01-20T03:36:59.245Z,164.03
2019-01-20T03:39:30.177Z,158.77
2019-01-20T03:42:01.369Z,156.82
2019-01-20T03:44:32.449Z,143.22
2019-01-20T03:47:04.045Z,122.17
2019-01-20T03:49:35.769Z,142.40
2019-01-20T03:52:06.829Z,155.30
2019-01-20T03:54:38.239Z,152.57
2019-01-20T03:57:08.908Z,172.50
2019-01-20T03:59:39.939Z,182.02
2019-01-20T04:02:11.285Z,167.25
2019-01-20T04:04:41.900Z,160.23
2019-01-20T04:07:14.051Z,133.53
2019-01-20T04:09:45.043Z,128.20
2019-01-20T04:12:20.728Z,119.57
2019-01-20T04:14:48.412Z,127.77
2019-01-20T04:17:19.355Z,140.93
2019-01-20T04:19:50.297Z,136.07
2019-01-20T04:22:21.340Z,126.77
2019-01-20T04:24:51.981Z,158.70
2019-01-20T04:27:23.305Z,163.53
2019-01-20T04:29:54.433Z,159.63
2019-01-20T04:32:25.409Z,154.60
2019-01-20T04:34:56.431Z,151.27
2019-01-20T04:37:27.455Z,125.67
2019-01-20T04:39:58.743Z,139.70
2019-01-20T04:42:30.146Z,152.00
2019-01-20T04:45:01.847Z,137.40
2019-01-20T04:47:32.819Z,149.60
2019-01-20T04:50:05.750Z,151.33
2019-01-20T04:52:39.878Z,155.27
2019-01-20T04:55:14.096Z,155.40
2019-01-20T04:57:49.243Z,158.27
2019-01-20T05:00:22.756Z,170.63
2019-01-20T05:02:57.141Z,145.03
2019-01-20T05:05:28.274Z,140.53
2019-01-20T05:07:59.349Z,163.73
2019-01-20T05:10:30.949Z,173.77
2019-01-20T05:13:02.317Z,150.73
2019-01-20T05:15:33.684Z,172.03
2019-01-20T05:18:05.176Z,170.70
2019-01-20T05:20:36.480Z,174.43
2019-01-20T05:23:08.458Z,171.57
2019-01-20T05:25:39.675Z,157.43
2019-01-20T05:28:11.105Z,160.63
2019-01-20T05:30:42.476Z,162.03
2019-01-20T05:33:13.567Z,179.70
2019-01-20T05:35:44.933Z,186.73
2019-01-20T05:38:16.047Z,163.52
2019-01-20T05:40:46.714Z,129.77
2019-01-20T05:43:17.787Z,128.55
2019-01-20T05:45:49.403Z,129.82
2019-01-20T05:48:20.441Z,125.72
2019-01-20T05:50:51.762Z,114.77
2019-01-20T05:53:23.180Z,115.67
2019-01-20T05:55:54.149Z,150.50
2019-01-20T05:58:25.544Z,147.77
2019-01-20T06:00:56.601Z,130.53
2019-01-20T06:03:27.680Z,152.33
2019-01-20T06:05:58.955Z,147.43
2019-01-20T06:08:31.176Z,154.70
2019-01-20T06:11:02.544Z,138.73
2019-01-20T06:13:35.500Z,143.03
2019-01-20T06:16:06.242Z,121.80
2019-01-20T06:18:37.216Z,127.90
2019-01-20T06:21:07.969Z,130.50
2019-01-20T06:23:39.052Z,160.90
2019-01-20T06:26:10.112Z,152.13
2019-01-20T06:28:41.600Z,180.27
2019-01-20T06:31:12.976Z,156.85
2019-01-20T06:33:43.992Z,151.30
2019-01-20T06:36:14.727Z,163.27
2019-01-20T06:38:45.615Z,161.63
2019-01-20T06:41:16.312Z,164.35
2019-01-20T06:43:47.133Z,146.13
2019-01-20T06:46:17.816Z,143.13
2019-01-20T06:48:48.453Z,158.20
2019-01-20T06:51:19.616Z,175.72
2019-01-20T06:53:50.640Z,191.53
2019-01-20T06:56:21.351Z,170.90
2019-01-20T06:58:52.970Z,165.97
2019-01-20T07:01:23.971Z,184.45
2019-01-20T07:03:54.887Z,143.93
2019-01-20T07:06:25.984Z,151.63
2019-01-20T07:08:57.827Z,146.62
2019-01-20T07:11:28.675Z,140.80
2019-01-20T07:13:59.344Z,153.82
2019-01-20T07:16:30.436Z,149.67
2019-01-20T07:19:01.176Z,154.93
2019-01-20T07:21:31.863Z,161.50
2019-01-20T07:24:03.288Z,166.03
2019-01-20T07:26:33.921Z,157.37
2019-01-20T07:29:04.986Z,154.03
2019-01-20T07:31:35.666Z,173.40
2019-01-20T07:34:06.297Z,165.90
2019-01-20T07:36:36.970Z,147.60
2019-01-20T07:39:09.229Z,156.10
2019-01-20T07:41:40.119Z,171.50
2019-01-20T07:44:10.733Z,164.87
2019-01-20T07:46:41.956Z,185.10
2019-01-20T07:49:12.617Z,176.80
2019-01-20T07:51:43.343Z,189.07
2019-01-20T07:54:14.375Z,191.92
2019-01-20T07:56:48.174Z,189.10
2019-01-20T07:59:19.377Z,194.82
2019-01-20T08:01:50.234Z,181.02
2019-01-20T08:04:21.336Z,165.37
2019-01-20T08:06:52.319Z,165.82
2019-01-20T08:09:23.299Z,172.50
2019-01-20T08:11:54.069Z,169.07
2019-01-20T08:14:25.566Z,156.57
2019-01-20T08:16:56.309Z,148.77
2019-01-20T08:19:27.275Z,150.57
2019-01-20T08:21:58.490Z,137.73
2019-01-20T08:24:29.478Z,131.87
2019-01-20T08:27:00.400Z,110.30
2019-01-20T08:29:31.365Z,121.80
2019-01-20T08:32:02.052Z,110.87
2019-01-20T08:34:32.673Z,110.83
2019-01-20T08:37:04.399Z,106.30
2019-01-20T08:39:35.085Z,103.07
2019-01-20T08:42:05.743Z,100.40
2019-01-20T08:44:41.526Z,107.00
2019-01-20T08:47:33.768Z,111.83
2019-01-20T08:50:10.617Z,95.72
2019-01-20T08:52:41.536Z,91.23
2019-01-20T08:55:12.797Z,90.40
2019-01-20T08:57:43.835Z,84.93
2019-01-20T09:00:17.505Z,87.50
2019-01-20T09:02:48.527Z,84.03
2019-01-20T09:05:19.276Z,86.40
2019-01-20T09:07:50.325Z,74.97
2019-01-20T09:10:27.471Z,76.50
2019-01-20T09:13:01.620Z,81.57
2019-01-20T09:15:32.838Z,69.12
2019-01-20T09:18:04.111Z,69.83
2019-01-20T09:20:34.801Z,66.72
2019-01-20T09:23:06.076Z,62.50
2019-01-20T09:25:37.201Z,63.80
2019-01-20T09:28:08.140Z,66.90
2019-01-20T09:30:39.275Z,59.90
2019-01-20T09:33:10.038Z,56.30
2019-01-20T09:35:41.012Z,60.07
2019-01-20T09:38:11.919Z,64.03
2019-01-20T09:40:42.613Z,57.70
2019-01-20T09:43:13.313Z,50.03
2019-01-20T09:45:44.148Z,54.67
2019-01-20T09:48:16.950Z,60.53
2019-01-20T09:50:47.662Z,56.33
2019-01-20T09:53:18.301Z,57.83
2019-01-20T09:55:49.330Z,56.92
2019-01-20T09:58:20.052Z,49.50
2019-01-20T10:00:51.009Z,47.23
2019-01-20T10:03:21.713Z,47.23
2019-01-20T10:05:52.666Z,47.03
2019-01-20T10:08:23.649Z,51.20
2019-01-20T10:10:54.705Z,43.75
2019-01-20T10:13:25.352Z,41.87
2019-01-20T10:15:56.023Z,44.90
2019-01-20T10:18:27.449Z,47.03
2019-01-20T10:20:58.723Z,43.13
2019-01-20T10:23:29.331Z,45.97
2019-01-20T10:26:00.101Z,42.20
2019-01-20T10:28:30.758Z,42.83
2019-01-20T10:31:01.548Z,46.90
2019-01-20T10:33:32.229Z,45.50
2019-01-20T10:36:04.733Z,44.87
2019-01-20T10:38:37.451Z,45.80
2019-01-20T10:41:08.113Z,45.20
2019-01-20T10:43:38.809Z,53.10
2019-01-20T10:46:09.729Z,43.57
2019-01-20T10:48:40.767Z,49.93
2019-01-20T10:51:11.689Z,47.07
2019-01-20T10:53:42.893Z,47.67
2019-01-20T10:56:16.459Z,44.38
2019-01-20T10:58:47.431Z,47.27
2019-01-20T11:01:18.549Z,43.23
2019-01-20T11:03:49.290Z,50.93
2019-01-20T11:06:20.393Z,47.07
2019-01-20T11:08:51.024Z,52.85
2019-01-20T11:11:21.874Z,45.43
2019-01-20T11:13:53.141Z,45.74
2019-01-20T11:16:23.760Z,45.17
2019-01-20T11:18:54.588Z,45.77
2019-01-20T11:21:25.276Z,41.23
2019-01-20T11:23:55.999Z,44.93
2019-01-20T11:26:26.667Z,45.17
2019-01-20T11:28:57.328Z,42.53
2019-01-20T11:31:31.098Z,42.23
2019-01-20T11:34:01.796Z,47.70
2019-01-20T11:36:32.806Z,41.25
2019-01-20T11:39:04.789Z,45.87
2019-01-20T11:41:37.460Z,42.33
2019-01-20T11:44:08.499Z,38.43
2019-01-20T11:46:39.462Z,46.80
2019-01-20T11:49:10.353Z,42.17
2019-01-20T11:51:41.232Z,43.37
2019-01-20T11:54:12.131Z,39.93
2019-01-20T11:56:42.778Z,40.60
2019-01-20T11:59:13.841Z,41.25
2019-01-20T12:01:45.209Z,38.93
2019-01-20T12:04:15.943Z,41.77
2019-01-20T12:06:46.561Z,37.70
2019-01-20T12:09:19.799Z,39.57
2019-01-20T12:11:50.482Z,44.97
2019-01-20T12:14:24.167Z,40.13
2019-01-20T12:16:54.201Z,41.30
2019-01-20T12:19:25.178Z,40.90
2019-01-20T12:21:56.501Z,38.63
2019-01-20T12:24:27.803Z,35.57
2019-01-20T12:26:58.866Z,35.53
2019-01-20T12:29:29.557Z,38.63
2019-01-20T12:32:00.164Z,36.87
2019-01-20T12:34:31.972Z,40.83
2019-01-20T12:37:02.846Z,35.17
2019-01-20T12:39:33.861Z,39.80
2019-01-20T12:42:04.635Z,39.57
2019-01-20T12:44:35.279Z,43.90
2019-01-20T12:47:05.962Z,43.27
2019-01-20T12:49:36.946Z,43.08
2019-01-20T12:52:08.714Z,42.35
2019-01-20T12:54:41.099Z,48.10
2019-01-20T12:57:12.827Z,41.53
2019-01-20T12:59:44.575Z,40.03
2019-01-20T13:02:15.863Z,39.97
2019-01-20T13:04:46.560Z,40.67
2019-01-20T13:07:17.950Z,41.95
2019-01-20T13:09:48.612Z,39.03
2019-01-20T13:12:19.599Z,41.73
2019-01-20T13:14:50.221Z,43.50
2019-01-20T13:17:21.542Z,42.93
2019-01-20T13:19:52.500Z,42.80
2019-01-20T13:22:23.119Z,43.30
2019-01-20T13:24:53.761Z,40.30
2019-01-20T13:27:24.384Z,41.73
2019-01-20T13:29:55.368Z,39.13
2019-01-20T13:32:25.981Z,41.97
2019-01-20T13:34:56.944Z,41.10
2019-01-20T13:37:30.385Z,40.60
2019-01-20T13:40:00.998Z,38.50
2019-01-20T13:42:32.071Z,42.75
2019-01-20T13:45:03.469Z,39.57
2019-01-20T13:47:34.428Z,40.93
2019-01-20T13:50:06.295Z,35.30
2019-01-20T13:52:37.009Z,39.27
2019-01-20T13:55:09.545Z,37.83
2019-01-20T13:57:40.950Z,37.77
2019-01-20T14:00:17.125Z,45.73
2019-01-20T14:02:47.868Z,42.93
2019-01-20T14:05:18.697Z,39.27
2019-01-20T14:07:49.333Z,40.87
2019-01-20T14:10:20.572Z,38.70
2019-01-20T14:12:54.328Z,36.83
2019-01-20T14:15:25.794Z,41.50
2019-01-20T14:17:56.412Z,39.38
2019-01-20T14:20:27.173Z,40.25
2019-01-20T14:22:58.407Z,40.52
2019-01-20T14:25:29.078Z,40.93
2019-01-20T14:28:00.006Z,40.93
2019-01-20T14:30:31.880Z,39.40
2019-01-20T14:33:04.925Z,40.45
2019-01-20T14:35:35.570Z,42.80
2019-01-20T14:38:06.488Z,48.07
2019-01-20T14:40:37.134Z,57.45
2019-01-20T14:43:07.959Z,54.17
2019-01-20T14:45:38.634Z,54.90
2019-01-20T14:48:09.644Z,58.87
2019-01-20T14:50:40.371Z,57.53
2019-01-20T14:53:11.151Z,59.03
2019-01-20T14:55:42.311Z,56.13
2019-01-20T14:58:13.874Z,56.70
2019-01-20T15:00:44.587Z,64.07
2019-01-20T15:03:15.618Z,64.07
2019-01-20T15:05:46.315Z,67.93
2019-01-20T15:08:16.952Z,62.60
2019-01-20T15:10:47.620Z,68.13
2019-01-20T15:13:18.330Z,64.60
2019-01-20T15:15:49.062Z,68.47
2019-01-20T15:18:20.182Z,62.70
2019-01-20T15:20:50.892Z,59.50
2019-01-20T15:23:21.541Z,70.13
2019-01-20T15:25:52.128Z,72.33
2019-01-20T15:28:25.945Z,82.33
2019-01-20T15:30:56.631Z,78.97
2019-01-20T15:33:27.247Z,85.63
2019-01-20T15:35:58.462Z,81.60
2019-01-20T15:38:29.096Z,81.77
2019-01-20T15:41:00.102Z,91.90
2019-01-20T15:43:31.269Z,95.20
2019-01-20T15:46:02.011Z,94.03
2019-01-20T15:48:32.900Z,92.83
2019-01-20T15:51:06.522Z,90.53
2019-01-20T15:53:37.239Z,82.60
2019-01-20T15:56:07.969Z,94.17
2019-01-20T15:58:38.995Z,90.03
2019-01-20T16:01:10.027Z,97.57
2019-01-20T16:03:40.792Z,101.40
2019-01-20T16:06:11.624Z,115.20
2019-01-20T16:08:42.339Z,105.97
2019-01-20T16:11:13.038Z,106.00
2019-01-20T16:13:43.758Z,106.97
2019-01-20T16:16:15.102Z,105.27
2019-01-20T16:18:45.746Z,102.00
2019-01-20T16:21:16.824Z,113.53
2019-01-20T16:23:47.501Z,112.83
2019-01-20T16:26:18.408Z,114.77
2019-01-20T16:28:49.377Z,112.50
2019-01-20T16:31:20.060Z,119.63
2019-01-20T16:33:50.699Z,113.20
2019-01-20T16:36:21.445Z,110.77
2019-01-20T16:38:52.180Z,111.77
2019-01-20T16:41:22.987Z,111.07
2019-01-20T16:43:53.683Z,100.30
2019-01-20T16:46:24.622Z,122.70
2019-01-20T16:48:55.359Z,119.60
2019-01-20T16:51:26.116Z,120.90
2019-01-20T16:53:57.155Z,111.77
2019-01-20T16:56:28.065Z,122.25
2019-01-20T16:58:58.752Z,118.30
2019-01-20T17:01:29.454Z,111.20
2019-01-20T17:04:00.099Z,128.97
2019-01-20T17:06:30.850Z,127.73
2019-01-20T17:09:01.884Z,128.10
2019-01-20T17:11:32.798Z,129.93
2019-01-20T17:14:03.645Z,121.37
2019-01-20T17:16:34.507Z,120.67
2019-01-20T17:19:05.244Z,118.90
2019-01-20T17:21:36.229Z,128.50
2019-01-20T17:24:06.914Z,133.37
2019-01-20T17:26:37.940Z,121.47
2019-01-20T17:29:08.931Z,105.47
2019-01-20T17:31:39.581Z,123.05
2019-01-20T17:34:10.260Z,158.10
2019-01-20T17:36:41.000Z,144.80
2019-01-20T17:39:12.297Z,148.43
2019-01-20T17:41:43.005Z,137.50
2019-01-20T17:44:13.816Z,150.82
2019-01-20T17:46:44.547Z,155.10
2019-01-20T17:49:15.225Z,159.93
2019-01-20T17:51:46.921Z,164.37
2019-01-20T17:54:17.866Z,160.32
2019-01-20T17:56:48.897Z,158.23
2019-01-20T17:59:19.728Z,165.03
2019-01-20T18:01:50.326Z,147.90
2019-01-20T18:04:21.275Z,152.83
2019-01-20T18:06:52.010Z,161.67
2019-01-20T18:09:22.620Z,161.17
2019-01-20T18:11:53.299Z,186.50
2019-01-20T18:14:25.350Z,171.32
2019-01-20T18:16:56.296Z,164.74
2019-01-20T18:19:26.937Z,162.73
2019-01-20T18:21:57.685Z,153.90
2019-01-20T18:24:28.313Z,149.45
2019-01-20T18:26:59.247Z,155.17
2019-01-20T18:29:33.013Z,138.25
2019-01-20T18:32:03.651Z,159.07
2019-01-20T18:34:34.326Z,158.42
2019-01-20T18:37:07.863Z,152.87
2019-01-20T18:39:38.856Z,142.03
2019-01-20T18:42:09.892Z,141.30
2019-01-20T18:44:40.616Z,166.80
2019-01-20T18:47:11.983Z,160.43
2019-01-20T18:49:42.969Z,180.83
2019-01-20T18:52:13.722Z,159.75
2019-01-20T18:54:44.391Z,171.37
2019-01-20T18:57:15.391Z,184.07
2019-01-20T18:59:46.222Z,172.10
2019-01-20T19:02:17.125Z,174.20
2019-01-20T19:04:50.707Z,150.40
2019-01-20T19:07:23.387Z,172.43
2019-01-20T19:09:54.028Z,167.57
2019-01-20T19:12:24.992Z,168.53
2019-01-20T19:14:56.060Z,183.93
2019-01-20T19:17:27.752Z,174.07
2019-01-20T19:20:00.251Z,170.53
2019-01-20T19:22:31.351Z,168.03
2019-01-20T19:25:02.410Z,162.93
2019-01-20T19:27:33.422Z,155.03
2019-01-20T19:30:05.130Z,145.10
2019-01-20T19:32:36.175Z,206.03
2019-01-20T19:35:08.506Z,189.70
2019-01-20T19:37:39.573Z,158.50
2019-01-20T19:40:11.690Z,164.20
2019-01-20T19:42:42.494Z,171.05
2019-01-20T19:45:15.872Z,144.77
2019-01-20T19:47:46.863Z,149.32
2019-01-20T19:50:18.323Z,159.47
2019-01-20T19:52:49.726Z,156.67
2019-01-20T19:55:37.553Z,158.83
2019-01-20T19:58:09.901Z,130.67
2019-01-20T20:00:40.872Z,130.40
2019-01-20T20:03:12.324Z,130.70
2019-01-20T20:05:43.762Z,160.28
2019-01-20T20:08:14.865Z,157.67
2019-01-20T20:14:28.506Z,179.73
2019-01-20T20:16:59.870Z,158.43
2019-01-20T20:19:31.737Z,166.00
2019-01-20T20:22:03.244Z,160.63
2019-01-20T20:24:35.565Z,160.90
2019-01-20T20:27:06.229Z,157.80
2019-01-20T20:29:37.265Z,145.90
2019-01-20T20:32:07.950Z,146.23
2019-01-20T20:34:39.036Z,135.33
2019-01-20T20:37:10.003Z,155.10
2019-01-20T20:39:41.457Z,153.07
2019-01-20T20:42:12.628Z,133.40
2019-01-20T20:44:43.787Z,149.93
2019-01-20T20:47:15.220Z,154.75
2019-01-20T20:49:45.935Z,149.93
2019-01-20T20:52:17.617Z,133.27
2019-01-20T20:54:48.594Z,122.97
2019-01-20T20:57:19.852Z,147.53
2019-01-20T20:59:51.030Z,143.00
2019-01-20T21:02:22.388Z,136.03
2019-01-20T21:04:53.386Z,157.37
2019-01-20T21:07:24.846Z,163.43
2019-01-20T21:09:56.538Z,153.90
2019-01-20T21:12:27.918Z,163.17
2019-01-20T21:15:03.280Z,174.50
2019-01-20T21:17:32.514Z,214.57
2019-01-20T21:20:03.543Z,192.90
2019-01-20T21:22:34.641Z,210.87
2019-01-20T21:25:07.009Z,188.90
2019-01-20T21:27:38.948Z,210.30
2019-01-20T21:30:14.673Z,203.80
2019-01-20T21:32:45.777Z,196.27
2019-01-20T21:35:18.740Z,201.23
2019-01-20T21:37:49.809Z,185.83
2019-01-20T21:40:20.942Z,192.03
2019-01-20T21:42:52.265Z,194.60
2019-01-20T21:45:23.305Z,187.18
2019-01-20T21:47:54.318Z,167.70
2019-01-20T21:50:31.354Z,186.10
2019-01-20T21:53:04.575Z,147.23
2019-01-20T21:55:37.543Z,141.60
2019-01-20T21:58:08.515Z,158.57
2019-01-20T22:00:39.627Z,179.07
2019-01-20T22:03:10.699Z,165.30
2019-01-20T22:05:41.400Z,162.77
2019-01-20T22:08:13.479Z,170.50
2019-01-20T22:10:44.477Z,152.73
2019-01-20T22:13:15.380Z,145.20
2019-01-20T22:15:47.291Z,145.47
2019-01-20T22:18:18.633Z,147.23
2019-01-20T22:20:50.051Z,142.67
2019-01-20T22:23:21.184Z,138.87
2019-01-20T22:25:52.546Z,125.87
2019-01-20T22:28:23.906Z,125.83
2019-01-20T22:30:55.364Z,128.07
2019-01-20T22:33:28.823Z,120.55
2019-01-20T22:35:59.873Z,137.47
2019-01-20T22:38:31.238Z,127.67
2019-01-20T22:41:02.326Z,127.63
2019-01-20T22:43:33.047Z,117.93
2019-01-20T22:46:03.781Z,111.10
2019-01-20T22:48:34.437Z,103.95
2019-01-20T22:51:05.132Z,105.97
2019-01-20T22:53:36.190Z,105.70
2019-01-20T22:56:06.864Z,99.17
2019-01-20T22:58:37.681Z,98.00
2019-01-20T23:01:20.886Z,98.33
2019-01-20T23:03:51.943Z,104.97
2019-01-20T23:06:22.989Z,114.37
2019-01-20T23:08:53.993Z,115.13
2019-01-20T23:11:24.741Z,124.07
2019-01-20T23:13:55.725Z,119.90
2019-01-20T23:16:27.483Z,119.70
2019-01-20T23:18:58.784Z,123.43
2019-01-20T23:21:29.782Z,112.93
2019-01-20T23:24:00.819Z,125.33
2019-01-20T23:26:32.339Z,140.37
2019-01-20T23:29:03.542Z,128.53
2019-01-20T23:31:34.578Z,112.92
2019-01-20T23:34:06.125Z,151.63
2019-01-20T23:36:37.443Z,150.43
2019-01-20T23:39:09.434Z,117.83
2019-01-20T23:41:40.407Z,106.53
2019-01-20T23:44:11.587Z,132.27
2019-01-20T23:46:42.313Z,109.27
2019-01-20T23:49:13.318Z,130.03
2019-01-20T23:51:47.459Z,141.00
2019-01-20T23:54:18.588Z,109.53
2019-01-20T23:56:50.112Z,117.70
2019-01-20T23:59:22.449Z,136.60
